createdAt,value
2019-04-05T00:01:04.977Z,5.90
2019-04-05T00:03:33.202Z,5.90
2019-04-05T00:06:01.656Z,5.91
2019-04-05T00:08:29.888Z,5.92
2019-04-05T00:10:58.116Z,5.88
2019-04-05T00:13:26.564Z,5.92
2019-04-05T00:15:54.790Z,5.88
2019-04-05T00:18:23.015Z,5.88
2019-04-05T00:20:51.252Z,5.85
2019-04-05T00:23:19.479Z,5.86
2019-04-05T00:25:47.720Z,5.85
2019-04-05T00:28:16.118Z,5.85
2019-04-05T00:30:44.840Z,5.86
2019-04-05T00:33:13.291Z,5.89
2019-04-05T00:35:41.527Z,5.89
2019-04-05T00:38:09.985Z,5.92
2019-04-05T00:40:38.215Z,5.95
2019-04-05T00:43:06.438Z,5.97
2019-04-05T00:45:34.674Z,5.98
2019-04-05T00:48:02.891Z,5.99
2019-04-05T00:50:31.127Z,6.00
2019-04-05T00:52:59.579Z,5.99
2019-04-05T00:55:28.041Z,5.98
2019-04-05T00:57:56.488Z,5.96
2019-04-05T01:00:25.717Z,5.94
2019-04-05T01:02:53.944Z,5.94
2019-04-05T01:05:22.397Z,5.92
2019-04-05T01:07:50.914Z,5.92
2019-04-05T01:10:19.585Z,5.90
2019-04-05T01:12:47.816Z,5.90
2019-04-05T01:15:16.187Z,5.91
2019-04-05T01:17:44.415Z,5.90
2019-04-05T01:20:13.086Z,5.92
2019-04-05T01:22:41.877Z,5.93
2019-04-05T01:25:10.461Z,5.93
2019-04-05T01:27:40.165Z,5.95
2019-04-05T01:30:13.771Z,5.94
2019-04-05T01:32:42.216Z,5.93
2019-04-05T01:35:10.733Z,5.92
2019-04-05T01:37:38.972Z,5.75
2019-04-05T01:40:07.930Z,5.89
2019-04-05T01:42:37.303Z,5.90
2019-04-05T01:45:08.807Z,5.91
2019-04-05T01:47:37.636Z,5.90
2019-04-05T01:50:08.527Z,5.90
2019-04-05T01:52:37.024Z,5.90
2019-04-05T01:55:08.270Z,5.91
2019-04-05T01:57:36.519Z,5.90
2019-04-05T02:00:07.885Z,5.94
2019-04-05T02:02:36.117Z,5.91
2019-04-05T02:05:07.551Z,5.89
2019-04-05T02:07:36.191Z,5.88
2019-04-05T02:10:10.029Z,5.85
2019-04-05T02:12:38.840Z,5.84
2019-04-05T02:15:08.965Z,5.82
2019-04-05T02:17:37.497Z,5.80
2019-04-05T02:20:07.333Z,5.74
2019-04-05T02:22:35.572Z,5.73
2019-04-05T02:25:05.870Z,5.70
2019-04-05T02:27:34.113Z,5.70
2019-04-05T02:30:02.405Z,5.70
2019-04-05T02:32:30.639Z,5.69
2019-04-05T02:34:59.106Z,5.65
2019-04-05T02:37:27.332Z,5.71
2019-04-05T02:39:55.560Z,5.74
2019-04-05T02:42:23.994Z,5.78
2019-04-05T02:44:52.577Z,5.82
2019-04-05T02:47:21.285Z,5.82
2019-04-05T02:49:50.215Z,5.83
2019-04-05T02:52:19.898Z,5.86
2019-04-05T02:54:48.497Z,5.84
2019-04-05T02:57:16.815Z,5.84
2019-04-05T02:59:45.336Z,5.83
2019-04-05T03:02:13.566Z,5.79
2019-04-05T03:04:41.801Z,5.75
2019-04-05T03:07:10.105Z,5.72
2019-04-05T03:09:38.507Z,5.70
2019-04-05T03:12:07.113Z,5.69
2019-04-05T03:14:35.507Z,5.69
2019-04-05T03:17:03.828Z,5.72
2019-04-05T03:19:33.916Z,5.75
2019-04-05T03:22:04.444Z,5.78
2019-04-05T03:24:34.591Z,5.83
2019-04-05T03:27:05.425Z,5.87
2019-04-05T03:29:33.731Z,5.90
2019-04-05T03:32:02.413Z,5.93
2019-04-05T03:34:30.987Z,5.93
2019-04-05T03:36:59.527Z,5.95
2019-04-05T03:39:28.243Z,5.95
2019-04-05T03:41:56.536Z,5.94
2019-04-05T03:44:25.075Z,5.92
2019-04-05T03:46:57.228Z,5.91
2019-04-05T03:49:24.066Z,5.91
2019-04-05T03:51:52.285Z,5.90
2019-04-05T03:54:20.821Z,5.90
2019-04-05T03:56:49.118Z,5.89
2019-04-05T03:59:17.575Z,5.88
2019-04-05T04:01:45.888Z,5.89
2019-04-05T04:04:14.124Z,5.90
2019-04-05T04:06:42.629Z,5.91
2019-04-05T04:09:10.881Z,5.94
2019-04-05T04:11:39.109Z,5.90
2019-04-05T04:14:07.514Z,5.95
2019-04-05T04:16:36.116Z,5.98
2019-04-05T04:19:04.425Z,5.97
2019-04-05T04:21:41.668Z,6.02
2019-04-05T04:24:10.273Z,6.01
2019-04-05T04:26:38.681Z,6.03
2019-04-05T04:29:06.929Z,6.07
2019-04-05T04:31:35.290Z,6.11
2019-04-05T04:34:03.518Z,6.13
2019-04-05T04:36:31.757Z,6.15
2019-04-05T04:38:59.988Z,6.18
2019-04-05T04:41:31.736Z,6.19
2019-04-05T04:43:58.396Z,6.20
2019-04-05T04:46:26.636Z,6.21
2019-04-05T04:48:55.087Z,6.21
2019-04-05T04:51:23.705Z,6.21
2019-04-05T04:53:52.194Z,6.21
2019-04-05T04:56:20.606Z,6.20
2019-04-05T04:58:48.832Z,6.18
2019-04-05T05:01:17.069Z,6.16
2019-04-05T05:03:45.298Z,6.16
2019-04-05T05:06:13.709Z,6.14
2019-04-05T05:08:41.937Z,6.14
2019-04-05T05:11:14.858Z,6.08
2019-04-05T05:13:40.794Z,6.11
2019-04-05T05:16:09.330Z,6.10
2019-04-05T05:18:37.625Z,6.10
2019-04-05T05:21:06.433Z,6.11
2019-04-05T05:23:34.832Z,6.11
2019-04-05T05:26:03.365Z,6.12
2019-04-05T05:28:32.870Z,6.14
2019-04-05T05:31:01.107Z,6.17
2019-04-05T05:33:29.403Z,6.17
2019-04-05T05:35:57.861Z,6.17
2019-04-05T05:38:26.097Z,6.15
2019-04-05T05:40:54.355Z,6.16
2019-04-05T05:43:23.984Z,6.17
2019-04-05T05:45:52.556Z,6.18
2019-04-05T05:48:20.795Z,6.17
2019-04-05T05:50:49.029Z,6.19
2019-04-05T05:53:17.267Z,6.17
2019-04-05T05:55:45.497Z,6.21
2019-04-05T05:58:13.737Z,6.24
2019-04-05T06:00:41.966Z,6.30
2019-04-05T06:03:11.233Z,6.33
2019-04-05T06:05:40.148Z,6.38
2019-04-05T06:08:08.599Z,6.42
2019-04-05T06:10:36.873Z,6.45
2019-04-05T06:13:07.135Z,6.47
2019-04-05T06:15:37.423Z,6.50
2019-04-05T06:18:05.371Z,6.55
2019-04-05T06:20:33.948Z,6.58
2019-04-05T06:23:02.185Z,6.63
2019-04-05T06:25:30.529Z,6.68
2019-04-05T06:27:59.913Z,6.71
2019-04-05T06:30:28.881Z,6.72
2019-04-05T06:32:57.325Z,6.74
2019-04-05T06:35:25.555Z,6.77
2019-04-05T06:37:53.805Z,6.78
2019-04-05T06:40:22.033Z,6.79
2019-04-05T06:42:50.271Z,6.80
2019-04-05T06:45:18.580Z,6.81
2019-04-05T06:47:46.826Z,6.82
2019-04-05T06:50:15.896Z,6.85
2019-04-05T06:52:44.136Z,6.86
2019-04-05T06:55:12.695Z,6.86
2019-04-05T06:57:40.940Z,6.85
2019-04-05T07:00:09.571Z,6.87
2019-04-05T07:02:38.140Z,6.87
2019-04-05T07:05:07.545Z,6.86
2019-04-05T07:07:35.785Z,6.87
2019-04-05T07:10:05.453Z,6.87
2019-04-05T07:12:33.706Z,6.87
2019-04-05T07:15:02.149Z,6.90
2019-04-05T07:17:30.384Z,6.91
2019-04-05T07:19:58.614Z,6.93
2019-04-05T07:22:38.666Z,6.92
2019-04-05T07:24:56.812Z,6.94
2019-04-05T07:27:25.053Z,6.95
2019-04-05T07:29:53.283Z,6.97
2019-04-05T07:32:21.523Z,6.96
2019-04-05T07:34:49.755Z,6.97
2019-04-05T07:37:18.229Z,6.98
2019-04-05T07:39:46.462Z,6.99
2019-04-05T07:42:14.710Z,7.02
2019-04-05T07:44:42.946Z,7.03
2019-04-05T07:47:11.262Z,7.04
2019-04-05T07:49:39.502Z,7.07
2019-04-05T07:52:07.744Z,7.11
2019-04-05T07:54:35.980Z,7.13
2019-04-05T07:57:04.399Z,7.16
2019-04-05T07:59:32.624Z,7.18
2019-04-05T08:02:00.851Z,7.18
2019-04-05T08:04:29.093Z,7.16
2019-04-05T08:06:59.700Z,7.17
2019-04-05T08:09:28.209Z,7.17
2019-04-05T08:11:56.817Z,7.19
2019-04-05T08:14:25.235Z,7.22
2019-04-05T08:16:53.731Z,7.24
2019-04-05T08:19:21.974Z,7.28
2019-04-05T08:21:50.502Z,7.27
2019-04-05T08:24:18.971Z,7.27
2019-04-05T08:26:47.200Z,7.28
2019-04-05T08:29:15.444Z,7.29
2019-04-05T08:31:43.908Z,7.29
2019-04-05T08:34:12.448Z,7.33
2019-04-05T08:36:40.683Z,7.39
2019-04-05T08:39:09.088Z,7.42
2019-04-05T08:41:37.326Z,7.46
2019-04-05T08:44:05.899Z,7.48
2019-04-05T08:46:34.427Z,7.46
2019-04-05T08:49:10.637Z,7.52
2019-04-05T08:51:32.592Z,7.52
2019-04-05T08:54:01.060Z,7.58
2019-04-05T08:56:29.511Z,7.61
2019-04-05T08:58:57.747Z,7.61
2019-04-05T09:01:25.982Z,7.54
2019-04-05T09:03:54.217Z,7.58
2019-04-05T09:06:22.443Z,7.59
2019-04-05T09:08:50.944Z,7.59
2019-04-05T09:11:19.228Z,7.61
2019-04-05T09:13:47.520Z,7.64
2019-04-05T09:16:16.082Z,7.67
2019-04-05T09:18:44.561Z,7.72
2019-04-05T09:21:12.791Z,7.75
2019-04-05T09:23:41.029Z,7.78
2019-04-05T09:26:09.597Z,7.80
2019-04-05T09:28:37.830Z,7.84
2019-04-05T09:31:06.116Z,7.86
2019-04-05T09:33:34.631Z,7.86
2019-04-05T09:36:02.869Z,7.85
2019-04-05T09:38:31.103Z,7.90
2019-04-05T09:40:59.662Z,7.93
2019-04-05T09:43:28.115Z,7.97
2019-04-05T09:45:56.370Z,7.97
2019-04-05T09:48:24.580Z,7.98
2019-04-05T09:50:52.888Z,8.00
2019-04-05T09:53:21.115Z,7.99
2019-04-05T09:55:49.637Z,8.02
2019-04-05T09:58:18.089Z,8.06
2019-04-05T10:00:46.384Z,8.11
2019-04-05T10:03:14.556Z,8.19
2019-04-05T10:05:42.804Z,8.25
2019-04-05T10:08:11.332Z,8.29
2019-04-05T10:10:39.820Z,8.33
2019-04-05T10:13:09.799Z,8.29
2019-04-05T10:15:38.010Z,8.45
2019-04-05T10:18:06.256Z,8.49
2019-04-05T10:20:34.487Z,8.56
2019-04-05T10:23:02.760Z,8.63
2019-04-05T10:25:30.992Z,8.67
2019-04-05T10:27:59.257Z,8.69
2019-04-05T10:30:27.773Z,8.75
2019-04-05T10:32:56.256Z,8.76
2019-04-05T10:35:24.496Z,8.77
2019-04-05T10:37:52.731Z,8.73
2019-04-05T10:40:21.031Z,8.75
2019-04-05T10:42:49.567Z,8.78
2019-04-05T10:45:17.976Z,8.80
2019-04-05T10:47:46.560Z,8.83
2019-04-05T10:50:15.539Z,8.88
2019-04-05T10:52:44.115Z,8.89
2019-04-05T10:55:12.981Z,8.93
2019-04-05T10:57:41.226Z,8.95
2019-04-05T11:00:12.769Z,8.97
2019-04-05T11:02:41.008Z,8.94
2019-04-05T11:05:09.801Z,8.96
2019-04-05T11:07:38.263Z,8.91
2019-04-05T11:10:09.270Z,8.90
2019-04-05T11:12:37.509Z,8.89
2019-04-05T11:15:07.278Z,8.92
2019-04-05T11:17:35.903Z,8.85
2019-04-05T11:20:20.672Z,8.98
2019-04-05T11:22:37.815Z,9.03
2019-04-05T11:25:07.489Z,9.11
2019-04-05T11:27:36.053Z,9.21
2019-04-05T11:30:07.088Z,9.24
2019-04-05T11:32:35.483Z,9.26
2019-04-05T11:35:05.316Z,9.22
2019-04-05T11:37:33.633Z,9.28
2019-04-05T11:40:01.937Z,9.32
2019-04-05T11:42:33.038Z,9.32
2019-04-05T11:45:01.085Z,9.33
2019-04-05T11:47:29.315Z,9.37
2019-04-05T11:49:58.814Z,9.38
2019-04-05T11:52:27.053Z,9.39
2019-04-05T11:54:55.928Z,9.34
2019-04-05T11:57:24.409Z,9.32
2019-04-05T11:59:52.643Z,9.34
2019-04-05T12:02:28.846Z,9.31
2019-04-05T12:04:58.975Z,9.31
2019-04-05T12:07:27.504Z,9.36
2019-04-05T12:09:56.144Z,9.41
2019-04-05T12:12:25.720Z,9.59
2019-04-05T12:14:54.053Z,9.76
2019-04-05T12:17:22.527Z,9.85
2019-04-05T12:19:50.758Z,9.85
2019-04-05T12:22:20.074Z,9.83
2019-04-05T12:24:48.411Z,9.79
2019-04-05T12:27:16.871Z,9.79
2019-04-05T12:29:45.099Z,9.73
2019-04-05T12:32:17.902Z,9.79
2019-04-05T12:34:43.670Z,9.75
2019-04-05T12:37:12.131Z,9.70
2019-04-05T12:39:40.527Z,9.84
2019-04-05T12:42:11.931Z,9.85
2019-04-05T12:44:38.955Z,9.85
2019-04-05T12:47:07.193Z,9.81
2019-04-05T12:49:35.422Z,9.78
2019-04-05T12:52:03.667Z,9.80
2019-04-05T12:54:31.892Z,9.78
2019-04-05T12:57:00.119Z,9.76
2019-04-05T12:59:28.473Z,9.73
2019-04-05T13:01:59.515Z,9.76
2019-04-05T13:04:26.987Z,9.80
2019-04-05T13:06:55.549Z,9.78
2019-04-05T13:09:24.684Z,9.76
2019-04-05T13:11:56.482Z,9.75
2019-04-05T13:14:26.139Z,9.71
2019-04-05T13:16:53.220Z,9.63
2019-04-05T13:19:21.462Z,9.69
2019-04-05T13:21:49.691Z,9.67
2019-04-05T13:24:17.933Z,9.69
2019-04-05T13:26:46.159Z,9.68
2019-04-05T13:29:14.737Z,9.72
2019-04-05T13:31:43.219Z,9.75
2019-04-05T13:34:11.700Z,9.81
2019-04-05T13:36:40.102Z,9.84
2019-04-05T13:39:09.119Z,9.87
2019-04-05T13:41:37.349Z,9.84
2019-04-05T13:44:06.089Z,9.84
2019-04-05T13:46:38.291Z,9.84
2019-04-05T13:49:04.585Z,9.86
2019-04-05T13:51:32.885Z,9.82
2019-04-05T13:54:01.125Z,9.82
2019-04-05T13:56:29.587Z,9.84
2019-04-05T13:58:57.829Z,9.90
2019-04-05T14:01:26.067Z,9.98
2019-04-05T14:03:54.612Z,10.07
2019-04-05T14:06:23.199Z,10.18
2019-04-05T14:08:51.568Z,10.27
2019-04-05T14:11:19.803Z,10.35
2019-04-05T14:13:48.045Z,10.41
2019-04-05T14:16:16.280Z,10.47
2019-04-05T14:18:49.392Z,10.53
2019-04-05T14:21:14.930Z,10.54
2019-04-05T14:23:43.166Z,10.55
2019-04-05T14:26:11.409Z,10.57
2019-04-05T14:28:39.950Z,10.55
2019-04-05T14:31:08.193Z,10.52
2019-04-05T14:33:36.909Z,10.47
2019-04-05T14:36:05.159Z,10.46
2019-04-05T14:38:33.390Z,10.41
2019-04-05T14:41:01.634Z,10.32
2019-04-05T14:43:29.865Z,10.19
2019-04-05T14:45:58.104Z,10.13
2019-04-05T14:48:28.054Z,10.23
2019-04-05T14:50:57.878Z,10.25
2019-04-05T14:53:26.249Z,10.15
2019-04-05T14:55:54.561Z,10.10
2019-04-05T14:58:22.794Z,10.00
2019-04-05T15:00:51.033Z,10.03
2019-04-05T15:03:19.266Z,10.03
2019-04-05T15:05:47.504Z,10.01
2019-04-05T15:08:15.985Z,10.02
2019-04-05T15:10:44.225Z,10.01
2019-04-05T15:13:12.455Z,9.96
2019-04-05T15:15:40.699Z,9.92
2019-04-05T15:18:09.158Z,9.88
2019-04-05T15:20:37.615Z,9.90
2019-04-05T15:23:06.139Z,9.91
2019-04-05T15:25:34.448Z,9.95
2019-04-05T15:28:02.679Z,9.97
2019-04-05T15:30:30.927Z,10.00
2019-04-05T15:33:01.100Z,10.00
2019-04-05T15:35:29.350Z,9.99
2019-04-05T15:38:01.426Z,9.99
2019-04-05T15:40:28.731Z,10.01
2019-04-05T15:42:57.865Z,9.99
2019-04-05T15:45:26.100Z,9.97
2019-04-05T15:47:54.651Z,10.00
2019-04-05T15:50:22.954Z,9.99
2019-04-05T15:52:51.207Z,9.99
2019-04-05T15:55:19.510Z,9.95
2019-04-05T15:57:47.755Z,9.90
2019-04-05T16:00:18.060Z,9.87
2019-04-05T16:02:46.296Z,9.82
2019-04-05T16:05:14.964Z,9.82
2019-04-05T16:07:43.425Z,9.83
2019-04-05T16:10:12.116Z,9.80
2019-04-05T16:12:40.351Z,9.84
2019-04-05T16:15:09.448Z,9.86
2019-04-05T16:17:37.685Z,9.89
2019-04-05T16:20:12.618Z,9.91
2019-04-05T16:22:41.142Z,9.90
2019-04-05T16:25:09.499Z,9.88
2019-04-05T16:27:37.736Z,9.85
2019-04-05T16:30:07.231Z,9.83
2019-04-05T16:32:35.695Z,9.81
2019-04-05T16:35:06.358Z,9.81
2019-04-05T16:37:34.815Z,9.84
2019-04-05T16:40:04.124Z,9.86
2019-04-05T16:42:32.624Z,9.88
2019-04-05T16:45:01.080Z,9.88
2019-04-05T16:47:29.325Z,9.88
2019-04-05T16:49:57.548Z,9.87
2019-04-05T16:52:25.790Z,9.85
2019-04-05T16:54:54.015Z,9.83
2019-04-05T16:57:22.258Z,9.78
2019-04-05T16:59:50.484Z,9.73
2019-04-05T17:02:18.727Z,9.71
2019-04-05T17:04:46.971Z,9.67
2019-04-05T17:07:15.200Z,9.59
2019-04-05T17:09:43.472Z,9.49
2019-04-05T17:12:11.714Z,9.45
2019-04-05T17:14:39.976Z,9.39
2019-04-05T17:17:08.212Z,9.37
2019-04-05T17:19:36.453Z,9.34
2019-04-05T17:22:04.958Z,9.34
2019-04-05T17:24:33.199Z,9.32
2019-04-05T17:27:01.431Z,9.30
2019-04-05T17:29:29.669Z,9.27
2019-04-05T17:31:58.123Z,9.26
2019-04-05T17:34:26.590Z,9.25
2019-04-05T17:36:54.848Z,9.26
2019-04-05T17:39:23.147Z,9.23
2019-04-05T17:41:51.395Z,9.24
2019-04-05T17:44:19.639Z,9.23
2019-04-05T17:46:47.876Z,9.24
2019-04-05T17:49:16.121Z,9.25
2019-04-05T17:51:44.347Z,9.25
2019-04-05T17:54:12.867Z,9.23
2019-04-05T17:56:41.172Z,9.23
2019-04-05T17:59:10.176Z,9.16
2019-04-05T18:01:38.897Z,9.16
2019-04-05T18:04:07.522Z,9.15
2019-04-05T18:06:35.751Z,9.12
2019-04-05T18:09:05.444Z,9.11
2019-04-05T18:11:33.845Z,9.13
2019-04-05T18:14:02.100Z,9.14
2019-04-05T18:16:30.399Z,9.11
2019-04-05T18:18:58.655Z,9.09
2019-04-05T18:21:26.892Z,9.09
2019-04-05T18:23:55.371Z,9.07
2019-04-05T18:26:23.615Z,9.05
2019-04-05T18:28:51.850Z,9.03
2019-04-05T18:31:20.090Z,9.02
2019-04-05T18:33:48.322Z,8.99
2019-04-05T18:36:16.557Z,9.02
2019-04-05T18:38:44.782Z,8.99
2019-04-05T18:41:13.022Z,8.99
2019-04-05T18:43:41.256Z,9.01
2019-04-05T18:46:09.492Z,9.02
2019-04-05T18:48:37.729Z,9.00
2019-04-05T18:51:05.964Z,9.01
2019-04-05T18:53:37.795Z,9.00
2019-04-05T18:56:04.715Z,9.00
2019-04-05T18:58:32.976Z,9.01
2019-04-05T19:01:01.181Z,9.02
2019-04-05T19:03:29.463Z,9.03
2019-04-05T19:05:57.704Z,9.03
2019-04-05T19:08:38.722Z,9.01
2019-04-05T19:10:55.993Z,9.01
2019-04-05T19:13:24.220Z,9.01
2019-04-05T19:15:52.493Z,9.00
2019-04-05T19:18:21.097Z,8.99
2019-04-05T19:20:49.738Z,8.99
2019-04-05T19:23:17.969Z,8.99
2019-04-05T19:25:46.765Z,8.99
2019-04-05T19:28:15.111Z,9.01
2019-04-05T19:50:43.456Z,9.06
2019-04-05T19:53:11.704Z,9.04
2019-04-05T19:55:39.933Z,9.03
2019-04-05T19:58:08.178Z,9.03
2019-04-05T20:00:36.716Z,9.02
2019-04-05T20:03:05.631Z,8.99
2019-04-05T20:05:33.839Z,9.01
2019-04-05T20:08:02.368Z,8.97
2019-04-05T20:10:30.851Z,8.98
2019-04-05T20:12:59.345Z,8.98
2019-04-05T20:15:27.555Z,8.96
2019-04-05T20:17:55.797Z,8.99
2019-04-05T20:20:24.024Z,9.01
2019-04-05T20:22:52.261Z,9.01
2019-04-05T20:25:20.495Z,9.01
2019-04-05T20:27:48.727Z,9.02
2019-04-05T20:30:16.961Z,9.03
2019-04-05T20:32:45.201Z,9.05
2019-04-05T20:35:13.505Z,9.06
2019-04-05T20:37:41.746Z,9.08
2019-04-05T20:40:10.495Z,9.10
2019-04-05T20:42:38.736Z,9.10
2019-04-05T20:45:06.971Z,9.11
2019-04-05T20:47:35.220Z,9.13
2019-04-05T20:50:04.315Z,9.14
2019-04-05T20:52:32.558Z,9.15
2019-04-05T20:55:01.069Z,9.16
2019-04-05T20:57:29.563Z,9.16
2019-04-05T20:59:57.791Z,9.18
2019-04-05T21:02:26.021Z,9.16
2019-04-05T21:04:54.259Z,9.16
2019-04-05T21:07:22.726Z,9.15
2019-04-05T21:09:51.083Z,9.12
2019-04-05T21:12:19.263Z,9.12
2019-04-05T21:14:47.731Z,9.09
2019-04-05T21:17:15.961Z,9.07
2019-04-05T21:19:44.430Z,9.09
2019-04-05T21:22:12.662Z,9.07
2019-04-05T21:24:41.123Z,9.04
2019-04-05T21:27:09.351Z,9.08
2019-04-05T21:29:37.584Z,9.11
2019-04-05T21:32:05.813Z,9.13
2019-04-05T21:34:34.052Z,9.11
2019-04-05T21:37:02.284Z,9.10
2019-04-05T21:39:30.520Z,9.05
2019-04-05T21:41:58.752Z,9.05
2019-04-05T21:44:26.991Z,9.03
2019-04-05T21:46:55.225Z,9.03
2019-04-05T21:49:23.475Z,9.04
2019-04-05T21:51:51.699Z,9.03
2019-04-05T21:54:20.231Z,9.04
2019-04-05T21:56:48.691Z,9.02
2019-04-05T21:59:16.927Z,8.97
2019-04-05T22:01:45.384Z,9.05
2019-04-05T22:04:13.853Z,9.07
2019-04-05T22:06:42.112Z,9.06
2019-04-05T22:09:10.462Z,9.06
2019-04-05T22:11:39.274Z,9.06
2019-04-05T22:14:07.505Z,9.07
2019-04-05T22:16:35.736Z,9.07
2019-04-05T22:19:03.972Z,9.08
2019-04-05T22:21:32.212Z,9.09
2019-04-05T22:24:00.671Z,9.10
2019-04-05T22:26:29.138Z,9.09
2019-04-05T22:28:57.363Z,9.08
2019-04-05T22:31:25.600Z,9.09
2019-04-05T22:33:54.048Z,9.08
2019-04-05T22:36:22.512Z,9.08
2019-04-05T22:38:50.760Z,9.08
2019-04-05T22:41:18.976Z,9.07
2019-04-05T22:43:47.436Z,9.08
2019-04-05T22:46:15.676Z,9.11
2019-04-05T22:48:43.903Z,9.14
2019-04-05T22:51:12.367Z,9.13
2019-04-05T22:53:40.601Z,9.13
2019-04-05T22:56:08.842Z,9.17
2019-04-05T22:58:37.073Z,9.15
2019-04-05T23:01:05.379Z,9.17
2019-04-05T23:03:33.608Z,9.20
2019-04-05T23:06:01.844Z,9.19
2019-04-05T23:08:30.072Z,9.17
2019-04-05T23:10:58.546Z,9.16
2019-04-05T23:13:26.780Z,9.13
2019-04-05T23:15:55.247Z,9.12
2019-04-05T23:18:23.703Z,9.12
2019-04-05T23:20:51.940Z,9.12
2019-04-05T23:23:20.168Z,9.11
2019-04-05T23:25:48.409Z,9.10
2019-04-05T23:28:16.873Z,9.11
2019-04-05T23:30:45.223Z,9.11
2019-04-05T23:33:13.421Z,9.10
2019-04-05T23:35:41.655Z,9.11
2019-04-05T23:38:09.882Z,9.11
2019-04-05T23:40:38.344Z,9.10
2019-04-05T23:43:06.576Z,9.10
2019-04-05T23:45:34.884Z,9.10
2019-04-05T23:48:03.340Z,9.08
2019-04-05T23:50:31.575Z,9.09
2019-04-05T23:52:59.803Z,9.10
2019-04-05T23:55:33.124Z,9.08
2019-04-05T23:57:59.632Z,9.07
